createdAt,value
2018-07-09T00:00:39.653Z,2.27
2018-07-09T00:03:09.348Z,2.20
2018-07-09T00:05:37.462Z,2.40
2018-07-09T00:08:05.025Z,2.07
2018-07-09T00:10:38.003Z,2.37
2018-07-09T00:13:05.679Z,2.10
2018-07-09T00:15:33.071Z,2.10
2018-07-09T00:18:00.484Z,2.13
2018-07-09T00:20:27.863Z,2.00
2018-07-09T00:22:55.206Z,2.40
2018-07-09T00:25:22.625Z,1.90
2018-07-09T00:27:50.031Z,2.27
2018-07-09T00:30:17.429Z,2.40
2018-07-09T00:32:44.774Z,2.37
2018-07-09T00:35:12.468Z,2.70
2018-07-09T00:37:39.891Z,2.13
2018-07-09T00:40:07.210Z,2.20
2018-07-09T00:42:35.104Z,2.37
2018-07-09T00:45:02.466Z,2.30
2018-07-09T00:47:29.995Z,2.57
2018-07-09T00:49:57.416Z,2.40
2018-07-09T00:52:24.813Z,2.20
2018-07-09T00:54:52.173Z,2.23
2018-07-09T00:57:19.604Z,2.23
2018-07-09T00:59:47.029Z,2.40
2018-07-09T01:02:14.378Z,1.97
2018-07-09T01:04:41.727Z,2.20
2018-07-09T01:07:09.119Z,2.07
2018-07-09T01:09:36.669Z,1.63
2018-07-09T01:12:12.515Z,1.83
2018-07-09T01:14:40.415Z,1.90
2018-07-09T01:17:07.873Z,1.60
2018-07-09T01:19:35.417Z,1.60
2018-07-09T01:22:03.775Z,1.30
2018-07-09T01:24:31.140Z,1.40
2018-07-09T01:26:59.061Z,1.47
2018-07-09T01:29:26.400Z,1.40
2018-07-09T01:31:53.758Z,1.60
2018-07-09T01:34:21.187Z,1.50
2018-07-09T01:36:48.491Z,1.40
2018-07-09T01:39:15.874Z,1.60
2018-07-09T01:41:43.246Z,1.43
2018-07-09T01:44:10.574Z,1.67
2018-07-09T01:46:39.020Z,2.40
2018-07-09T01:49:06.410Z,1.90
2018-07-09T01:51:33.867Z,1.90
2018-07-09T01:54:01.324Z,2.30
2018-07-09T01:56:28.779Z,2.23
2018-07-09T01:58:56.165Z,2.57
2018-07-09T02:01:23.501Z,2.80
2018-07-09T02:03:51.020Z,2.00
2018-07-09T02:06:18.400Z,2.27
2018-07-09T02:08:45.752Z,2.70
2018-07-09T02:11:13.106Z,2.70
2018-07-09T02:13:40.566Z,2.70
2018-07-09T02:16:07.923Z,3.23
2018-07-09T02:18:35.284Z,3.77
2018-07-09T02:21:02.641Z,2.83
2018-07-09T02:23:30.076Z,3.17
2018-07-09T02:25:57.482Z,2.40
2018-07-09T02:28:24.835Z,3.00
2018-07-09T02:30:52.158Z,2.87
2018-07-09T02:33:19.480Z,3.50
2018-07-09T02:35:46.852Z,2.73
2018-07-09T02:38:14.173Z,2.53
2018-07-09T02:40:41.577Z,3.07
2018-07-09T02:43:08.937Z,2.90
2018-07-09T02:45:36.525Z,3.50
2018-07-09T02:48:03.896Z,3.97
2018-07-09T02:50:31.337Z,3.33
2018-07-09T02:52:58.692Z,4.07
2018-07-09T02:55:26.046Z,2.93
2018-07-09T02:57:53.363Z,3.40
2018-07-09T03:00:20.697Z,3.30
2018-07-09T03:02:48.114Z,2.90
2018-07-09T03:05:15.443Z,2.80
2018-07-09T03:07:43.629Z,2.90
2018-07-09T03:10:10.957Z,3.37
2018-07-09T03:12:38.311Z,3.07
2018-07-09T03:15:05.808Z,3.00
2018-07-09T03:17:33.122Z,2.80
2018-07-09T03:20:00.454Z,2.73
2018-07-09T03:22:27.796Z,2.70
2018-07-09T03:24:55.135Z,2.80
2018-07-09T03:27:22.424Z,2.50
2018-07-09T03:29:49.787Z,2.80
2018-07-09T03:32:17.129Z,2.70
2018-07-09T03:34:44.511Z,2.60
2018-07-09T03:37:11.926Z,2.40
2018-07-09T03:39:39.237Z,2.50
2018-07-09T03:42:06.593Z,2.40
2018-07-09T03:44:34.048Z,2.50
2018-07-09T03:47:01.393Z,2.47
2018-07-09T03:49:28.914Z,2.80
2018-07-09T03:51:56.278Z,2.93
2018-07-09T03:54:23.665Z,2.70
2018-07-09T03:56:51.056Z,2.37
2018-07-09T03:59:18.344Z,2.57
2018-07-09T04:01:45.733Z,2.70
2018-07-09T04:04:13.118Z,2.83
2018-07-09T04:06:40.440Z,2.73
2018-07-09T04:09:07.923Z,2.70
2018-07-09T04:11:35.403Z,3.20
2018-07-09T04:14:02.723Z,3.30
2018-07-09T04:16:30.115Z,3.20
2018-07-09T04:18:57.475Z,2.43
2018-07-09T04:21:24.798Z,3.20
2018-07-09T04:23:52.171Z,2.93
2018-07-09T04:26:19.564Z,3.60
2018-07-09T04:28:46.814Z,2.83
2018-07-09T04:31:14.189Z,3.20
2018-07-09T04:33:41.514Z,3.07
2018-07-09T04:36:08.869Z,3.13
2018-07-09T04:38:36.214Z,3.57
2018-07-09T04:41:03.566Z,3.13
2018-07-09T04:43:30.875Z,2.93
2018-07-09T04:45:58.206Z,3.00
2018-07-09T04:48:25.558Z,2.60
2018-07-09T04:50:52.934Z,3.07
2018-07-09T04:53:20.266Z,2.50
2018-07-09T04:55:47.622Z,2.90
2018-07-09T04:58:14.984Z,2.60
2018-07-09T05:00:42.358Z,2.50
2018-07-09T05:03:09.716Z,3.10
2018-07-09T05:05:37.098Z,2.27
2018-07-09T05:08:04.460Z,2.20
2018-07-09T05:10:31.848Z,2.47
2018-07-09T05:12:59.233Z,2.23
2018-07-09T05:15:26.535Z,1.90
2018-07-09T05:17:53.929Z,2.17
2018-07-09T05:20:21.307Z,2.70
2018-07-09T05:22:48.638Z,2.33
2018-07-09T05:25:16.016Z,2.40
2018-07-09T05:27:43.555Z,2.70
2018-07-09T05:30:11.660Z,2.37
2018-07-09T05:32:39.029Z,2.40
2018-07-09T05:35:06.590Z,1.90
2018-07-09T05:37:33.944Z,2.43
2018-07-09T05:40:01.312Z,1.70
2018-07-09T05:42:28.781Z,1.80
2018-07-09T05:44:56.129Z,2.17
2018-07-09T05:47:23.641Z,1.50
2018-07-09T05:49:51.955Z,2.13
2018-07-09T05:52:19.383Z,2.73
2018-07-09T05:54:46.926Z,2.23
2018-07-09T05:57:14.280Z,1.83
2018-07-09T05:59:41.615Z,1.60
2018-07-09T06:02:09.020Z,2.43
2018-07-09T06:04:37.228Z,1.67
2018-07-09T06:07:04.685Z,1.80
2018-07-09T06:09:32.091Z,2.03
2018-07-09T06:11:59.593Z,2.03
2018-07-09T06:14:27.907Z,2.07
2018-07-09T06:16:55.251Z,2.03
2018-07-09T06:19:22.672Z,2.00
2018-07-09T06:21:50.110Z,2.23
2018-07-09T06:24:17.457Z,2.50
2018-07-09T06:26:44.937Z,1.80
2018-07-09T06:29:12.340Z,1.90
2018-07-09T06:31:39.736Z,2.00
2018-07-09T06:34:07.168Z,2.03
2018-07-09T06:36:34.636Z,1.93
2018-07-09T06:39:02.047Z,2.20
2018-07-09T06:41:29.532Z,1.77
2018-07-09T06:43:59.990Z,1.83
2018-07-09T06:46:27.328Z,1.90
2018-07-09T06:48:54.675Z,1.90
2018-07-09T06:51:22.091Z,1.67
2018-07-09T06:53:49.585Z,2.40
2018-07-09T06:56:17.897Z,1.90
2018-07-09T06:58:45.276Z,1.90
2018-07-09T07:01:12.609Z,1.60
2018-07-09T07:03:40.038Z,2.30
2018-07-09T07:06:07.409Z,2.00
2018-07-09T07:08:34.834Z,2.37
2018-07-09T07:11:02.143Z,1.70
2018-07-09T07:13:29.483Z,1.83
2018-07-09T07:15:56.851Z,1.97
2018-07-09T07:18:25.317Z,1.80
2018-07-09T07:20:52.720Z,2.00
2018-07-09T07:23:20.305Z,2.00
2018-07-09T07:25:47.677Z,1.50
2018-07-09T07:28:15.136Z,1.90
2018-07-09T07:30:42.570Z,1.60
2018-07-09T07:33:09.982Z,1.90
2018-07-09T07:35:37.372Z,1.83
2018-07-09T07:38:04.740Z,1.80
2018-07-09T07:40:32.165Z,1.73
2018-07-09T07:42:59.591Z,1.63
2018-07-09T07:45:27.006Z,1.50
2018-07-09T07:47:54.369Z,2.37
2018-07-09T07:50:21.850Z,1.90
2018-07-09T07:52:49.212Z,2.40
2018-07-09T07:55:16.904Z,2.23
2018-07-09T07:57:44.346Z,2.13
2018-07-09T08:00:11.745Z,2.13
2018-07-09T08:02:39.212Z,1.83
2018-07-09T08:05:06.643Z,2.10
2018-07-09T08:07:34.761Z,1.70
2018-07-09T08:10:02.211Z,2.00
2018-07-09T08:14:57.056Z,1.90
2018-07-09T08:17:24.501Z,2.00
2018-07-09T08:19:51.976Z,2.40
2018-07-09T08:22:19.508Z,1.60
2018-07-09T08:24:46.880Z,1.93
2018-07-09T08:27:14.298Z,2.10
2018-07-09T08:29:41.854Z,1.63
2018-07-09T08:32:09.307Z,2.30
2018-07-09T08:34:38.647Z,1.97
2018-07-09T08:37:06.136Z,2.27
2018-07-09T08:39:33.585Z,2.00
2018-07-09T08:42:01.006Z,2.40
2018-07-09T08:44:28.410Z,2.00
2018-07-09T08:46:55.817Z,2.20
2018-07-09T08:49:23.136Z,2.20
2018-07-09T08:51:50.478Z,2.10
2018-07-09T08:54:17.874Z,2.20
2018-07-09T08:56:45.321Z,2.33
2018-07-09T08:59:12.796Z,1.90
2018-07-09T09:01:40.300Z,2.30
2018-07-09T09:04:07.810Z,2.20
2018-07-09T09:06:35.319Z,2.50
2018-07-09T09:09:03.030Z,2.00
2018-07-09T09:11:30.425Z,1.97
2018-07-09T09:13:57.854Z,1.93
2018-07-09T09:16:25.382Z,2.07
2018-07-09T09:18:52.923Z,2.07
2018-07-09T09:21:20.374Z,2.10
2018-07-09T09:23:47.705Z,1.80
2018-07-09T09:26:15.161Z,2.00
2018-07-09T09:28:42.928Z,1.70
2018-07-09T09:31:10.322Z,1.73
2018-07-09T09:33:37.760Z,1.83
2018-07-09T09:36:05.212Z,2.20
2018-07-09T09:38:32.663Z,1.87
2018-07-09T09:41:00.101Z,2.10
2018-07-09T09:43:27.471Z,2.27
2018-07-09T09:45:54.810Z,2.00
2018-07-09T09:48:22.195Z,1.90
2018-07-09T09:50:49.591Z,1.73
2018-07-09T09:53:17.792Z,1.97
2018-07-09T09:55:45.891Z,1.87
2018-07-09T09:58:14.286Z,2.30
2018-07-09T10:00:46.994Z,1.93
2018-07-09T10:03:14.522Z,2.00
2018-07-09T10:05:41.923Z,2.17
2018-07-09T10:08:09.437Z,2.57
2018-07-09T10:10:36.991Z,1.80
2018-07-09T10:13:05.426Z,2.27
2018-07-09T10:15:34.883Z,2.03
2018-07-09T10:18:02.209Z,1.80
2018-07-09T10:20:29.594Z,2.30
2018-07-09T10:22:57.977Z,2.30
2018-07-09T10:25:25.385Z,1.93
2018-07-09T10:27:52.869Z,2.03
2018-07-09T10:30:20.368Z,2.00
2018-07-09T10:32:48.540Z,1.80
2018-07-09T10:35:16.314Z,2.50
2018-07-09T10:37:43.763Z,2.23
2018-07-09T10:40:14.962Z,2.53
2018-07-09T10:42:42.289Z,2.67
2018-07-09T10:45:09.775Z,2.13
2018-07-09T10:47:37.216Z,2.37
2018-07-09T10:50:04.616Z,2.00
2018-07-09T10:52:32.053Z,2.03
2018-07-09T10:54:59.486Z,2.53
2018-07-09T10:57:26.912Z,1.80
2018-07-09T10:59:54.318Z,2.23
2018-07-09T11:02:21.932Z,2.73
2018-07-09T11:04:49.341Z,2.00
2018-07-09T11:07:16.700Z,2.10
2018-07-09T11:09:44.165Z,2.27
2018-07-09T11:12:12.567Z,2.37
2018-07-09T11:14:40.242Z,2.50
2018-07-09T11:17:07.947Z,2.07
2018-07-09T11:19:35.416Z,1.87
2018-07-09T11:22:02.873Z,2.00
2018-07-09T11:24:30.321Z,2.13
2018-07-09T11:26:58.678Z,1.70
2018-07-09T11:29:26.057Z,1.90
2018-07-09T11:31:53.388Z,1.80
2018-07-09T11:34:20.916Z,2.03
2018-07-09T11:36:48.506Z,1.83
2018-07-09T11:39:15.867Z,1.70
2018-07-09T11:41:45.074Z,1.80
2018-07-09T11:44:12.640Z,1.93
2018-07-09T11:46:40.985Z,1.67
2018-07-09T11:49:08.343Z,1.60
2018-07-09T11:51:35.716Z,2.30
2018-07-09T11:54:03.173Z,1.97
2018-07-09T11:56:36.431Z,2.10
2018-07-09T11:59:11.617Z,1.70
2018-07-09T12:01:38.966Z,1.90
2018-07-09T12:04:07.586Z,1.73
2018-07-09T12:06:36.696Z,2.17
2018-07-09T12:09:04.867Z,2.00
2018-07-09T12:11:34.013Z,2.20
2018-07-09T12:14:01.370Z,2.40
2018-07-09T12:16:28.755Z,1.70
2018-07-09T12:18:57.010Z,2.00
2018-07-09T12:21:24.426Z,2.30
2018-07-09T12:23:52.399Z,2.10
2018-07-09T12:26:19.816Z,1.73
2018-07-09T12:28:50.139Z,2.40
2018-07-09T12:31:17.579Z,2.17
2018-07-09T12:33:44.955Z,2.20
2018-07-09T12:36:16.913Z,2.00
2018-07-09T12:38:46.827Z,2.40
2018-07-09T12:41:14.193Z,2.20
2018-07-09T12:43:41.988Z,2.17
2018-07-09T12:46:11.657Z,2.20
2018-07-09T12:48:41.059Z,2.30
2018-07-09T12:51:08.571Z,2.17
2018-07-09T12:53:36.045Z,2.13
2018-07-09T12:56:04.237Z,2.10
2018-07-09T12:58:33.429Z,2.23
2018-07-09T13:01:00.930Z,2.70
2018-07-09T13:03:28.402Z,2.20
2018-07-09T13:05:59.123Z,2.30
2018-07-09T13:08:26.528Z,2.40
2018-07-09T13:10:53.854Z,3.00
2018-07-09T13:13:24.822Z,2.50
2018-07-09T13:15:52.220Z,2.00
2018-07-09T13:18:19.697Z,2.17
2018-07-09T13:20:47.948Z,2.03
2018-07-09T13:23:15.440Z,2.30
2018-07-09T13:25:51.138Z,2.10
2018-07-09T13:28:19.376Z,1.70
2018-07-09T13:30:50.677Z,2.13
2018-07-09T13:33:19.251Z,2.40
2018-07-09T13:35:46.612Z,2.30
2018-07-09T13:38:14.053Z,2.20
2018-07-09T13:40:42.331Z,2.20
2018-07-09T13:43:09.774Z,2.33
2018-07-09T13:45:37.135Z,2.23
2018-07-09T13:48:08.136Z,2.77
2018-07-09T13:50:35.958Z,2.87
2018-07-09T13:53:04.402Z,2.30
2018-07-09T13:55:31.790Z,2.37
2018-07-09T13:58:00.036Z,2.20
2018-07-09T14:00:27.393Z,2.20
2018-07-09T14:02:55.751Z,2.27
2018-07-09T14:05:25.759Z,2.10
2018-07-09T14:07:53.168Z,2.03
2018-07-09T14:10:20.617Z,2.10
2018-07-09T14:12:50.879Z,2.17
2018-07-09T14:15:21.137Z,2.00
2018-07-09T14:17:48.536Z,2.07
2018-07-09T14:20:23.660Z,2.57
2018-07-09T14:22:55.008Z,2.40
2018-07-09T14:25:22.464Z,2.20
2018-07-09T14:27:49.968Z,2.20
2018-07-09T14:30:19.575Z,1.97
2018-07-09T14:32:47.862Z,2.13
2018-07-09T14:35:15.339Z,2.33
2018-07-09T14:37:43.531Z,2.80
2018-07-09T14:40:11.111Z,2.47
2018-07-09T14:42:38.503Z,2.00
2018-07-09T14:45:06.909Z,2.03
2018-07-09T14:47:37.070Z,1.90
2018-07-09T14:50:05.378Z,2.33
2018-07-09T14:52:32.778Z,1.73
2018-07-09T14:55:03.573Z,2.03
2018-07-09T14:57:32.198Z,2.17
2018-07-09T14:59:59.590Z,2.13
2018-07-09T15:02:27.113Z,1.97
2018-07-09T15:04:54.567Z,2.07
2018-07-09T15:07:23.552Z,2.30
2018-07-09T15:09:51.013Z,2.43
2018-07-09T15:12:18.371Z,2.17
2018-07-09T15:14:50.744Z,1.87
2018-07-09T15:17:19.198Z,2.40
2018-07-09T15:19:46.609Z,2.20
2018-07-09T15:22:13.939Z,2.37
2018-07-09T15:24:41.749Z,2.20
2018-07-09T15:27:09.533Z,2.17
2018-07-09T15:29:36.977Z,2.37
2018-07-09T15:32:10.242Z,2.00
2018-07-09T15:34:38.222Z,2.30
2018-07-09T15:37:05.623Z,2.00
2018-07-09T15:39:33.553Z,2.63
2018-07-09T15:42:01.837Z,2.20
2018-07-09T15:44:30.190Z,2.10
2018-07-09T15:46:57.619Z,2.03
2018-07-09T15:49:25.106Z,2.23
2018-07-09T15:51:52.794Z,2.53
2018-07-09T15:54:20.260Z,1.70
2018-07-09T15:56:47.748Z,2.10
2018-07-09T15:59:15.122Z,2.03
2018-07-09T16:01:43.550Z,2.27
2018-07-09T16:04:11.006Z,2.30
2018-07-09T16:06:38.372Z,2.03
2018-07-09T16:09:09.633Z,2.00
2018-07-09T16:11:36.987Z,2.00
2018-07-09T16:14:05.379Z,2.23
2018-07-09T16:16:34.703Z,2.83
2018-07-09T16:19:03.978Z,2.03
2018-07-09T16:21:31.348Z,1.80
2018-07-09T16:23:58.756Z,1.80
2018-07-09T16:26:26.172Z,2.17
2018-07-09T16:28:54.325Z,2.03
2018-07-09T16:31:21.754Z,1.77
2018-07-09T16:33:49.164Z,1.90
2018-07-09T16:36:16.619Z,1.57
2018-07-09T16:38:44.010Z,1.90
2018-07-09T16:41:12.238Z,1.67
2018-07-09T16:43:45.522Z,1.60
2018-07-09T16:46:13.171Z,1.80
2018-07-09T16:48:41.609Z,2.13
2018-07-09T16:51:09.165Z,2.03
2018-07-09T16:53:36.661Z,1.40
2018-07-09T16:56:04.145Z,2.00
2018-07-09T16:58:31.595Z,2.20
2018-07-09T17:00:59.077Z,2.10
2018-07-09T17:03:26.556Z,1.90
2018-07-09T17:05:55.365Z,1.90
2018-07-09T17:08:22.749Z,1.87
2018-07-09T17:10:50.411Z,1.63
2018-07-09T17:13:18.548Z,1.87
2018-07-09T17:15:46.022Z,1.97
2018-07-09T17:18:13.449Z,2.33
2018-07-09T17:20:42.485Z,1.93
2018-07-09T17:23:10.918Z,2.10
2018-07-09T17:25:38.277Z,2.20
2018-07-09T17:28:06.664Z,2.03
2018-07-09T17:30:34.140Z,2.77
2018-07-09T17:33:01.650Z,2.07
2018-07-09T17:35:29.418Z,1.73
2018-07-09T17:37:57.012Z,2.10
2018-07-09T17:40:24.378Z,2.07
2018-07-09T17:42:51.912Z,2.37
2018-07-09T17:45:20.264Z,1.90
2018-07-09T17:47:47.665Z,2.17
2018-07-09T17:50:15.537Z,2.10
2018-07-09T17:52:42.915Z,2.40
2018-07-09T17:55:13.087Z,2.00
2018-07-09T17:57:41.540Z,2.83
2018-07-09T18:00:09.207Z,2.03
2018-07-09T18:02:36.804Z,2.80
2018-07-09T18:05:05.345Z,2.60
2018-07-09T18:07:34.906Z,2.40
2018-07-09T18:10:02.432Z,2.37
2018-07-09T18:12:29.900Z,2.30
2018-07-09T18:14:57.281Z,4.23
2018-07-09T18:17:24.801Z,2.80
2018-07-09T18:19:52.241Z,2.53
2018-07-09T18:22:20.179Z,2.37
2018-07-09T18:24:48.412Z,2.10
2018-07-09T18:27:17.607Z,2.50
2018-07-09T18:29:51.782Z,2.23
2018-07-09T18:32:19.266Z,2.50
2018-07-09T18:34:46.633Z,2.07
2018-07-09T18:37:14.154Z,2.53
2018-07-09T18:39:41.589Z,2.33
2018-07-09T18:42:08.984Z,2.27
2018-07-09T18:44:37.302Z,2.10
2018-07-09T18:47:04.793Z,2.60
2018-07-09T18:49:32.201Z,2.50
2018-07-09T18:52:00.450Z,3.00
2018-07-09T18:54:28.152Z,2.60
2018-07-09T18:56:55.664Z,2.40
2018-07-09T18:59:23.102Z,2.70
2018-07-09T19:01:50.550Z,2.40
2018-07-09T19:04:17.997Z,2.80
2018-07-09T19:06:47.269Z,2.53
2018-07-09T19:09:14.812Z,2.70
2018-07-09T19:11:42.368Z,2.47
2018-07-09T19:14:10.689Z,2.23
2018-07-09T19:16:43.507Z,2.40
2018-07-09T19:19:16.574Z,2.77
2018-07-09T19:21:49.722Z,2.63
2018-07-09T19:24:16.685Z,2.43
2018-07-09T19:26:44.728Z,2.53
2018-07-09T19:29:11.483Z,2.57
2018-07-09T19:31:38.238Z,2.40
2018-07-09T19:34:05.106Z,2.30
2018-07-09T19:36:31.899Z,2.50
2018-07-09T19:38:58.653Z,2.43
2018-07-09T19:41:25.441Z,2.70
2018-07-09T19:43:52.228Z,2.70
2018-07-09T19:46:19.109Z,2.97
2018-07-09T19:48:45.922Z,2.03
2018-07-09T19:51:12.975Z,2.53
2018-07-09T19:53:39.756Z,2.50
2018-07-09T19:56:07.164Z,2.27
2018-07-09T19:58:34.820Z,2.53
2018-07-09T20:01:01.602Z,2.10
2018-07-09T20:03:29.043Z,2.40
2018-07-09T20:05:55.766Z,2.57
2018-07-09T20:08:26.816Z,2.00
2018-07-09T20:10:59.103Z,2.50
2018-07-09T20:13:35.860Z,2.30
2018-07-09T20:16:07.899Z,2.60
2018-07-09T20:18:34.641Z,2.27
2018-07-09T20:21:01.415Z,2.37
2018-07-09T20:23:28.146Z,2.30
2018-07-09T20:25:54.889Z,2.40
2018-07-09T20:28:21.663Z,1.80
2018-07-09T20:30:49.183Z,2.63
2018-07-09T20:33:16.799Z,2.00
2018-07-09T20:35:43.690Z,1.90
2018-07-09T20:38:10.465Z,1.67
2018-07-09T20:40:37.194Z,1.80
2018-07-09T20:43:03.929Z,2.10
2018-07-09T20:45:30.744Z,2.27
2018-07-09T20:47:58.090Z,2.10
2018-07-09T20:50:24.843Z,1.73
2018-07-09T20:52:51.696Z,1.60
2018-07-09T20:55:18.448Z,2.37
2018-07-09T20:57:45.221Z,2.20
2018-07-09T21:00:11.994Z,2.40
2018-07-09T21:02:38.756Z,2.27
2018-07-09T21:05:05.644Z,2.00
2018-07-09T21:07:32.969Z,1.80
2018-07-09T21:09:59.765Z,1.63
2018-07-09T21:12:26.448Z,1.80
2018-07-09T21:14:53.274Z,1.93
2018-07-09T21:17:20.177Z,1.90
2018-07-09T21:19:46.951Z,2.07
2018-07-09T21:22:13.731Z,1.67
2018-07-09T21:24:40.588Z,2.10
2018-07-09T21:27:07.315Z,1.63
2018-07-09T21:29:34.657Z,1.90
2018-07-09T21:32:01.470Z,1.73
2018-07-09T21:34:28.263Z,1.90
2018-07-09T21:36:55.004Z,1.90
2018-07-09T21:39:23.790Z,2.17
2018-07-09T21:41:50.898Z,1.70
2018-07-09T21:44:17.713Z,1.90
2018-07-09T21:46:44.497Z,2.00
2018-07-09T21:49:11.328Z,1.67
2018-07-09T21:51:38.394Z,2.07
2018-07-09T21:54:05.307Z,2.07
2018-07-09T21:56:32.125Z,2.13
2018-07-09T21:58:58.827Z,1.90
2018-07-09T22:01:25.958Z,2.00
2018-07-09T22:03:52.842Z,1.80
2018-07-09T22:06:19.572Z,1.67
2018-07-09T22:08:46.399Z,2.40
2018-07-09T22:11:13.295Z,1.77
2018-07-09T22:13:40.435Z,1.57
2018-07-09T22:16:07.277Z,1.73
2018-07-09T22:18:34.020Z,1.63
2018-07-09T22:21:00.799Z,1.93
2018-07-09T22:23:27.777Z,1.80
2018-07-09T22:25:54.614Z,1.73
2018-07-09T22:28:21.523Z,1.70
2018-07-09T22:30:48.913Z,1.60
2018-07-09T22:33:16.559Z,1.90
2018-07-09T22:35:43.964Z,2.20
2018-07-09T22:38:11.376Z,1.90
2018-07-09T22:40:38.778Z,2.10
2018-07-09T22:43:11.747Z,2.00
2018-07-09T22:45:39.590Z,1.90
2018-07-09T22:48:07.098Z,2.00
2018-07-09T22:50:34.719Z,1.90
2018-07-09T22:53:02.117Z,1.97
2018-07-09T22:55:35.067Z,1.90
2018-07-09T22:58:02.589Z,2.03
2018-07-09T23:00:30.057Z,2.27
2018-07-09T23:03:02.898Z,2.30
2018-07-09T23:05:30.404Z,2.17
2018-07-09T23:07:57.886Z,2.33
2018-07-09T23:10:30.828Z,2.00
2018-07-09T23:13:18.857Z,2.30
2018-07-09T23:15:52.826Z,2.10
2018-07-09T23:18:25.741Z,2.20
2018-07-09T23:22:01.607Z,1.90
2018-07-09T23:24:28.623Z,2.00
2018-07-09T23:26:55.773Z,2.40
2018-07-09T23:29:22.562Z,2.37
2018-07-09T23:31:49.600Z,2.10
2018-07-09T23:34:16.904Z,2.70
2018-07-09T23:36:43.801Z,2.20
2018-07-09T23:39:10.978Z,2.37
2018-07-09T23:41:37.984Z,2.20
2018-07-09T23:44:04.997Z,2.57
2018-07-09T23:46:32.003Z,2.30
2018-07-09T23:48:58.926Z,2.37
2018-07-09T23:51:25.978Z,2.30
2018-07-09T23:53:53.125Z,2.23
2018-07-09T23:56:52.981Z,2.07
2018-07-09T23:59:26.975Z,2.27
